Latest Weather Observations for Ceduna

IDS60801

Issued at 10:35 pm CDT Wednesday 22 October 2014 (issued every 30 minutes, with the page automatically refreshed every 10 minutes)

About weather observations | Map of weather stations | Latest weather observations for SA | Other Formats
Station Details ID: 018012 Name: CEDUNA AMO Lat: -32.13 Lon: 133.70 Height: 15.3 m
Data from the previous 72 hours. | See also: Recent months at Ceduna
Date/Time
CDT
Temp
°C
App
Temp
°C
Dew
Point
Rel
Hum
%
Delta-T
°C
Wind Press
QNH
hPa
Press
MSL
hPa
Rain
since 9 am
mm
Dir
 
Spd
km/h
Gust
km/h
Spd
kts
Gust
kts
22/10:00pm 15.8 12.9 12.9 83 1.6 S 20 28 11 15 1021.2 1021.2 0.0
22/09:30pm 16.1 13.4 13.0 82 1.7 S 19 28 10 15 1021.4 1021.4 0.0
22/09:00pm 15.9 12.5 12.6 81 1.8 S 22 32 12 17 1021.4 1021.4 0.0
22/08:30pm 15.9 12.2 12.6 81 1.8 S 24 32 13 17 1021.0 1021.0 0.0
22/08:00pm 15.9 12.2 12.6 81 1.8 S 24 33 13 18 1020.9 1020.9 0.0
22/07:30pm 16.4 13.0 12.6 78 2.1 S 22 30 12 16 1020.8 1020.8 0.0
22/07:00pm 16.5 12.9 12.9 79 2.0 S 24 33 13 18 1020.6 1020.6 0.0
22/06:30pm 16.9 13.2 12.7 76 2.3 S 24 33 13 18 1020.5 1020.5 0.0
22/06:00pm 17.1 13.1 13.0 77 2.3 S 26 33 14 18 1020.5 1020.5 0.0
22/05:30pm 17.6 13.6 12.9 74 2.6 S 26 32 14 17 1020.4 1020.4 0.0
22/05:00pm 18.4 14.4 12.9 70 3.1 S 26 35 14 19 1020.5 1020.5 0.0
22/04:30pm 19.0 14.9 12.7 67 3.5 S 26 35 14 19 1020.5 1020.5 0.0
22/04:00pm 18.8 14.3 12.7 67 3.4 S 28 35 15 19 1020.5 1020.5 0.0
22/03:30pm 19.1 14.8 13.1 68 3.4 S 28 37 15 20 1020.7 1020.7 0.0
22/03:00pm 18.8 14.8 13.1 69 3.2 S 26 35 14 19 1020.9 1020.9 0.0
22/02:30pm 18.9 15.0 13.4 70 3.1 SSW 26 37 14 20 1021.1 1021.1 0.0
22/02:00pm 18.6 15.0 13.1 70 3.1 SSW 24 32 13 17 1021.4 1021.4 0.0
22/01:30pm 18.9 15.3 13.0 68 3.3 SSW 24 32 13 17 1021.6 1021.6 0.0
22/01:00pm 19.1 15.9 13.1 68 3.4 SSW 22 30 12 16 1021.9 1021.9 0.0
22/12:30pm 19.1 16.0 13.3 69 3.3 SSW 22 32 12 17 1021.9 1021.9 0.0
22/12:00pm 18.5 15.6 13.0 70 3.1 S 20 26 11 14 1022.1 1022.1 0.0
22/11:30am 19.1 16.3 13.1 68 3.4 S 20 28 11 15 1022.2 1022.2 0.0
22/11:00am 19.3 16.1 13.1 67 3.5 S 22 30 12 16 1022.2 1022.2 0.0
22/10:30am 18.1 15.7 13.7 75 2.5 S 19 24 10 13 1022.3 1022.3 0.0
22/10:00am 17.7 15.6 13.6 77 2.3 S 17 22 9 12 1022.3 1022.3 0.0
22/09:30am 17.0 15.0 13.8 81 1.8 S 17 24 9 13 1021.9 1021.9 0.0
22/09:00am 16.8 14.7 13.6 81 1.8 S 17 24 9 13 1021.7 1021.7 0.0
22/08:30am 16.3 13.7 13.8 85 1.4 S 20 24 11 13 1021.3 1021.3 0.0
22/08:00am 15.9 13.5 13.8 87 1.2 S 19 24 10 13 1021.0 1021.0 0.0
22/07:30am 15.8 13.4 13.8 88 1.1 S 19 24 10 13 1020.6 1020.6 0.0
22/07:00am 15.4 13.0 13.8 90 0.9 S 19 26 10 14 1020.2 1020.2 0.0
22/06:30am 15.8 13.3 14.2 90 0.9 S 20 28 11 15 1020.1 1020.1 0.0
22/06:00am 15.9 13.7 14.5 91 0.8 S 19 24 10 13 1019.8 1019.8 0.0
22/05:30am 15.8 14.1 14.6 93 0.7 S 17 20 9 11 1019.6 1019.6 0.0
22/05:00am 15.7 14.0 14.8 94 0.5 S 17 22 9 12 1019.3 1019.3 0.0
22/04:44am 16.2 14.3 15.2 94 0.6 S 19 24 10 13 1019.2 1019.2 0.0
22/04:30am 16.1 14.4 14.7 91 0.8 S 17 20 9 11 1019.0 1019.0 0.0
22/04:00am 16.1 14.2 14.2 88 1.1 S 17 22 9 12 1019.0 1019.0 0.0
22/03:30am 16.3 14.9 14.4 88 1.1 S 15 20 8 11 1019.2 1019.2 0.0
22/03:00am 16.4 14.9 14.1 86 1.3 S 15 19 8 10 1019.3 1019.3 0.0
22/02:30am 16.2 15.0 14.1 87 1.2 S 13 19 7 10 1019.5 1019.5 0.0
22/02:00am 15.7 14.9 13.9 89 1.0 S 11 13 6 7 1019.7 1019.7 0.0
22/01:30am 15.7 14.5 14.1 90 0.9 S 13 15 7 8 1020.1 1020.1 0.0
22/01:00am 16.1 15.3 14.0 87 1.2 S 11 11 6 6 1020.8 1020.8 0.0
22/12:30am 16.7 16.0 14.2 85 1.4 S 11 13 6 7 1020.9 1020.9 0.0
22/12:00am 17.4 16.9 14.8 85 1.5 SSW 11 15 6 8 1020.9 1020.9 0.0
 
Date/Time
CDT
Temp
°C
App
Temp
°C
Dew
Point
Rel
Hum
%
Delta-T
°C
Wind Press
QNH
hPa
Press
MSL
hPa
Rain
since 9 am
mm
Dir
 
Spd
km/h
Gust
km/h
Spd
kts
Gust
kts
21/11:30pm 17.6 16.3 14.8 84 1.6 SSW 15 19 8 10 1020.8 1020.8 0.0
21/11:00pm 17.8 16.2 14.9 83 1.7 SSW 17 22 9 12 1020.7 1020.7 0.0
21/10:30pm 18.1 16.5 15.0 82 1.8 SW 17 20 9 11 1020.8 1020.8 0.0
21/10:00pm 18.1 16.2 15.2 83 1.7 SW 19 24 10 13 1020.4 1020.4 0.0
21/09:30pm 18.4 17.2 15.1 81 1.9 WSW 15 19 8 10 1019.9 1019.9 0.0
21/09:00pm 18.9 17.0 15.1 78 2.2 SW 19 24 10 13 1019.0 1019.0 0.0
21/08:30pm 19.0 17.7 14.7 76 2.5 SW 15 19 8 10 1018.7 1018.7 0.0
21/08:00pm 19.6 19.6 14.2 71 3.1 SW 7 13 4 7 1018.3 1018.3 0.0
21/07:30pm 20.4 18.8 14.0 66 3.7 SSW 15 19 8 10 1017.7 1017.7 0.0
21/07:00pm 21.2 18.6 13.9 63 4.2 SSW 20 28 11 15 1016.9 1016.9 0.0
21/06:30pm 22.1 18.2 13.4 57 5.0 SSW 26 33 14 18 1016.4 1016.4 0.0
21/06:00pm 23.1 19.4 12.6 51 6.0 SW 24 33 13 18 1015.8 1015.8 0.0
21/05:30pm 23.1 18.9 13.6 55 5.5 SSW 28 30 15 16 1015.4 1015.4 0.0
21/05:00pm 24.1 21.2 13.9 53 6.0 WSW 22 30 12 16 1015.0 1015.0 0.0
21/04:30pm 25.2 21.9 11.6 42 7.7 W 20 26 11 14 1014.8 1014.8 0.0
21/04:00pm 26.5 21.3 10.4 36 9.0 SW 28 37 15 20 1014.4 1014.4 0.0
21/03:30pm 24.9 19.3 13.2 48 6.8 SW 35 48 19 26 1014.4 1014.4 0.0
21/03:08pm 27.1 21.7 9.6 33 9.7 SW 28 54 15 29 1013.9 1013.9 0.0
21/03:04pm 29.6 24.4 7.4 24 12.0 WSW 24 33 13 18 1014.1 1014.1 0.0
21/03:00pm 36.1 29.1 -7.2 6 19.2 N 22 33 12 18 1013.6 1013.6 0.0
21/02:30pm 34.6 25.4 -7.9 6 18.4 N 33 44 18 24 1013.7 1013.7 0.0
21/02:00pm 35.1 25.8 -9.5 5 18.9 N 33 52 18 28 1013.9 1013.9 0.0
21/01:41pm 34.6 24.9 -9.4 5 18.6 N 35 56 19 30 1014.1 1014.1 0.0
21/01:30pm 35.0 27.3 -6.9 6 18.5 N 26 37 14 20 1014.1 1014.1 0.0
21/01:00pm 34.4 27.1 -6.6 7 18.1 NNE 24 33 13 18 1014.7 1014.7 0.0
21/12:30pm 32.1 25.6 -5.5 8 16.6 NNE 20 26 11 14 1015.1 1015.1 0.0
21/12:00pm 31.9 23.8 -6.3 8 16.6 N 28 43 15 23 1015.7 1015.7 0.0
21/11:30am 32.5 24.7 -7.4 7 17.1 NNE 26 37 14 20 1015.7 1015.7 0.0
21/11:00am 30.8 24.6 -3.0 11 15.4 NE 20 28 11 15 1015.9 1015.9 0.0
21/10:30am 29.4 23.7 -0.6 14 14.1 NE 19 22 10 12 1016.5 1016.5 0.0
21/10:00am 26.6 23.1 7.1 29 10.3 ENE 15 20 8 11 1016.6 1016.6 0.0
21/09:30am 22.2 19.8 8.8 42 7.1 ENE 11 13 6 7 1016.9 1016.9 0.0
21/09:00am 20.0 18.6 9.7 51 5.5 NNW 7 9 4 5 1017.0 1017.0 0.0
21/08:30am 17.7 16.4 9.3 58 4.4 NNE 6 9 3 5 1016.1 1016.1 0.0
21/08:00am 16.1 14.5 8.9 62 3.7 N 7 11 4 6 1016.2 1016.2 0.0
21/07:30am 15.6 14.4 10.3 70 2.8 NNE 7 11 4 6 1015.5 1015.5 0.0
21/07:00am 14.4 13.4 10.4 77 2.1 NE 6 11 3 6 1015.0 1015.0 0.0
21/06:30am 13.2 12.8 9.9 80 1.7 NNE 2 9 1 5 1014.9 1014.9 0.0
21/06:00am 14.5 14.6 11.5 82 1.6 ENE 2 7 1 4 1014.5 1014.5 0.0
21/05:30am 16.9 16.1 12.8 77 2.3 SSW 9 9 5 5 1014.3 1014.3 0.0
21/05:00am 16.4 11.8 9.5 63 3.6 WSW 24 32 13 17 1014.0 1014.0 0.0
21/04:30am 12.2 9.9 4.8 60 3.4 N 6 7 3 4 1012.8 1012.8 0.0
21/04:00am 12.0 9.7 5.0 62 3.2 N 6 7 3 4 1013.0 1013.0 0.0
21/03:30am 12.0 9.5 4.0 58 3.6 N 6 7 3 4 1013.2 1013.2 0.0
21/03:00am 13.8 11.5 5.0 55 4.1 N 6 7 3 4 1013.3 1013.3 0.0
21/02:30am 14.8 11.6 5.0 52 4.6 N 11 13 6 7 1013.4 1013.4 0.0
21/02:00am 14.9 12.6 7.4 61 3.7 NNW 9 11 5 6 1013.4 1013.4 0.0
21/01:30am 16.3 14.9 9.4 63 3.6 W 7 13 4 7 1013.5 1013.5 0.0
21/01:00am 15.4 12.8 4.2 47 5.2 NNE 7 11 4 6 1013.5 1013.5 0.0
21/12:30am 16.0 12.4 4.8 47 5.3 NE 13 17 7 9 1013.6 1013.6 0.0
21/12:00am 16.6 13.0 5.1 46 5.5 NNE 13 15 7 8 1013.8 1013.8 0.0
 
Date/Time
CDT
Temp
°C
App
Temp
°C
Dew
Point
Rel
Hum
%
Delta-T
°C
Wind Press
QNH
hPa
Press
MSL
hPa
Rain
since 9 am
mm
Dir
 
Spd
km/h
Gust
km/h
Spd
kts
Gust
kts
20/11:30pm 16.6 14.4 7.9 56 4.4 N 9 11 5 6 1013.8 1013.8 0.0
20/11:00pm 17.4 15.3 9.8 61 4.0 N 11 13 6 7 1013.9 1013.9 0.0
20/10:30pm 19.2 17.9 11.1 59 4.4 N 9 11 5 6 1014.0 1014.0 0.0
20/10:00pm 21.9 19.9 8.7 42 7.0 WSW 9 13 5 7 1014.3 1014.3 0.0
20/09:30pm 22.9 21.2 11.2 47 6.5 SW 11 19 6 10 1014.3 1014.3 0.0
20/09:00pm 22.3 20.2 12.4 53 5.6 WSW 15 22 8 12 1014.5 1014.5 0.0
20/08:30pm 24.1 20.6 8.6 37 8.3 S 17 20 9 11 1013.9 1013.9 0.0
20/08:00pm 25.4 21.0 9.0 35 8.9 SSW 22 26 12 14 1013.8 1013.8 0.0
20/07:30pm 26.9 22.4 5.9 26 10.9 SSW 19 24 10 13 1013.5 1013.5 0.0
20/07:00pm 29.2 21.6 0.3 15 13.8 SW 30 39 16 21 1013.3 1013.3 0.0
20/06:30pm 28.8 20.9 4.3 21 12.5 WSW 35 48 19 26 1013.1 1013.1 0.0
20/06:18pm 33.2 25.8 3.8 15 15.3 WSW 32 39 17 21 1012.4 1012.4 0.0
20/06:00pm 38.3 32.9 -14.5 3 21.3 WSW 11 19 6 10 1012.1 1012.1 0.0
20/05:30pm 38.4 32.1 -16.4 2 21.5 S 15 20 8 11 1012.2 1012.2 0.0
20/05:00pm 37.7 33.3 -6.0 6 20.0 S 9 20 5 11 1012.4 1012.4 0.0
20/04:30pm 40.1 - - - - NW 19 30 10 16 1012.6 1012.6 0.0
20/04:00pm 39.8 33.4 -42.1 0 23.1 NW 13 24 7 13 1013.0 1013.0 0.0
20/03:30pm 39.5 32.3 -46.1 0 22.9 NNE 17 28 9 15 1013.3 1013.3 0.0
20/03:00pm 39.1 32.7 -46.0 0 22.7 NNE 13 19 7 10 1013.9 1013.9 0.0
20/02:30pm 39.0 - - - - N 26 43 14 23 1014.4 1014.4 0.0
20/02:00pm 39.1 31.3 -52.7 0 22.7 N 20 32 11 17 1014.9 1014.9 0.0
20/01:30pm 38.3 - - - - N 24 37 13 20 1015.2 1015.2 0.0
20/01:00pm 37.9 30.3 -30.9 1 21.8 NNE 20 32 11 17 1015.5 1015.5 0.0
20/12:30pm 37.2 27.1 -51.6 0 21.6 N 32 41 17 22 1016.1 1016.1 0.0
20/12:00pm 36.2 26.2 -46.1 0 21.0 NNE 32 43 17 23 1016.6 1016.6 0.0
20/11:30am 35.6 26.1 -28.5 1 20.4 NNE 30 41 16 22 1017.1 1017.1 0.0
20/11:00am 34.7 24.7 -33.4 1 20.0 NNE 32 43 17 23 1017.6 1017.6 0.0
20/10:30am 34.1 24.7 -24.4 2 19.4 NNE 30 41 16 22 1018.0 1018.0 0.0
20/10:00am 32.5 23.5 -22.1 2 18.4 NNE 28 39 15 21 1018.2 1018.2 0.0
20/09:30am 30.6 22.1 -19.3 3 17.2 NNE 26 35 14 19 1018.1 1018.1 0.0
20/09:00am 26.5 18.6 -15.3 5 14.7 NE 24 28 13 15 1018.0 1018.0 0.0
20/08:30am 23.7 16.6 -14.6 7 13.2 NE 20 28 11 15 1017.9 1017.9 0.0
20/08:00am 21.1 14.0 -13.6 8 11.8 ENE 20 26 11 14 1017.4 1017.4 0.0
20/07:30am 18.6 11.5 -13.5 10 10.6 NE 20 24 11 13 1017.0 1017.0 0.0
20/07:00am 18.5 12.0 -13.0 10 10.5 NE 17 20 9 11 1016.7 1016.7 0.0
20/06:30am 19.3 12.3 -15.1 8 11.1 NE 19 22 10 12 1016.5 1016.5 0.0
20/06:00am 19.6 12.5 -14.6 9 11.2 NE 20 24 11 13 1016.2 1016.2 0.0
20/05:30am 19.7 12.5 -15.1 8 11.3 NNE 20 26 11 14 1016.1 1016.1 0.0
20/05:00am 20.8 12.4 -17.0 6 12.0 NE 26 32 14 17 1015.9 1015.9 0.0
20/04:30am 21.2 12.8 -15.9 7 12.1 NE 26 32 14 17 1015.9 1015.9 0.0
20/04:00am 21.4 13.5 -14.9 7 12.1 NE 24 30 13 16 1015.7 1015.7 0.0
20/03:30am 20.3 12.4 -14.3 8 11.5 ENE 24 32 13 17 1015.8 1015.8 0.0
20/03:00am 16.9 9.8 -8.4 17 9.1 ENE 22 24 12 13 1016.1 1016.1 0.0
20/02:30am 17.7 10.4 -6.3 19 9.1 ENE 24 28 13 15 1016.3 1016.3 0.0
20/02:00am 18.7 11.5 -4.9 19 9.3 E 24 28 13 15 1016.6 1016.6 0.0
20/01:30am 18.9 12.3 -3.0 22 9.0 E 22 26 12 14 1017.0 1017.0 0.0
20/01:00am 18.8 12.9 -2.4 23 8.8 E 19 20 10 11 1017.2 1017.2 0.0
20/12:30am 19.2 13.2 -1.9 24 8.9 E 20 24 11 13 1017.2 1017.2 0.0
20/12:00am 21.2 15.4 -1.8 21 9.9 E 19 24 10 13 1017.1 1017.1 0.0
 
Date/Time
CDT
Temp
°C
App
Temp
°C
Dew
Point
Rel
Hum
%
Delta-T
°C
Wind Press
QNH
hPa
Press
MSL
hPa
Rain
since 9 am
mm
Dir
 
Spd
km/h
Gust
km/h
Spd
kts
Gust
kts
19/11:30pm 22.4 16.5 -2.2 19 10.6 E 19 24 10 13 1017.2 1017.2 0.0
19/11:00pm 23.0 16.9 -2.1 18 10.9 ESE 20 26 11 14 1017.2 1017.2 0.0

Other Formats:

Comma delimited format used in spreadsheet applications
http://www.bom.gov.au/fwo/IDS60801/IDS60801.94653.axf

JavaScript Object Notation format (JSON) in row-major order
http://www.bom.gov.au/fwo/IDS60801/IDS60801.94653.json